Terminal Aerodrome Forecast
Issued by NWS

Home | Current Version | Previous Version | Text Only | Print | Product List | Glossary On
Versions: 1 2 3 4 5 6 7 8 9 10 11 12 13 14 15 16 17 18
000
FTUS43 KDDC 231738
TAFGCK
TAF
KGCK 231738Z 2318/2418 18020G30KT P6SM BKN100
     FM240600 17013KT P6SM VCTS OVC070CB
     FM241000 18013KT P6SM VCTS BKN025CB=

USA.gov is the U.S. government's official web portal to all federal, state and local government web resources and services.